Time;durP1;ratioP1;P1;durP2;ratioP2;P2;SDS_P1;SDS_P2;PMS_P1;PMS_P2;Temp;Humidity;BMP_temperature;BMP_pressure;BME280_temperature;BME280_humidity;BME280_pressure;Samples;Min_cycle;Max_cycle;Signal;HPM_P1;HPM_P2
2023/12/17 00:01:52;;;;;;;;;;;;;;;16.82;43.59;102934.81;4970767;28;1149;-51
2023/12/17 00:04:18;;;;;;;;;;;;;;;18.32;39.92;102931.31;4961999;28;1981;-54
2023/12/17 00:06:43;;;;;;;;;;;;;;;16.74;43.09;102944.88;4970311;28;1184;-53
2023/12/17 00:09:09;;;;;;;;;;;;;;;16.12;43.97;102946.22;4964109;28;1236;-54
2023/12/17 00:11:38;;;;;;;;;;;;;;;16.70;43.71;102952.09;4970342;28;1116;-54
2023/12/17 00:14:04;;;;;;;;;;;;;;;16.86;42.86;102939.09;4963273;28;1124;-52
2023/12/17 00:16:29;;;;;;;;;;;;;;;16.08;44.19;102946.41;4962082;28;1061;-54
2023/12/17 00:18:55;;;;;;;;;;;;;;;18.04;40.72;102947.63;4967544;28;1005;-54
2023/12/17 00:21:20;;;;;;;;;;;;;;;16.49;43.47;102959.09;4969402;28;1001;-53
2023/12/17 00:23:46;;;;;;;;;;;;;;;17.20;42.81;102965.31;4972594;28;2008;-57
2023/12/17 00:26:11;;;;;;;;;;;;;;;17.26;42.09;102954.41;4970509;28;1068;-51
2023/12/17 00:28:37;;;;;;;;;;;;;;;16.36;43.73;102951.59;4977219;28;1113;-55
2023/12/17 00:31:02;;;;;;;;;;;;;;;16.08;44.49;102957.03;4960201;28;1052;-55
2023/12/17 00:33:28;;;;;;;;;;;;;;;16.75;42.86;102960.75;4963652;28;1038;-53
2023/12/17 00:35:54;;;;;;;;;;;;;;;16.16;44.44;102966.44;4969635;28;1148;-55
2023/12/17 00:38:20;;;;;;;;;;;;;;;18.21;40.50;102962.91;4975065;28;1101;-54
2023/12/17 00:40:45;;;;;;;;;;;;;;;16.77;43.06;102974.00;4975451;28;1385;-53
2023/12/17 00:43:11;;;;;;;;;;;;;;;16.13;44.06;102968.34;4959760;28;1104;-53
2023/12/17 00:45:37;;;;;;;;;;;;;;;17.77;40.99;102980.72;4968145;28;1984;-56
2023/12/17 00:48:02;;;;;;;;;;;;;;;16.40;43.48;102979.75;4966603;28;1239;-53
2023/12/17 00:50:28;;;;;;;;;;;;;;;16.68;43.85;102980.53;4979539;28;1100;-55
2023/12/17 00:52:53;;;;;;;;;;;;;;;16.80;42.81;102987.16;4975586;28;1154;-54
2023/12/17 00:55:19;;;;;;;;;;;;;;;16.05;44.30;102973.06;4960069;28;1196;-53
2023/12/17 00:57:44;;;;;;;;;;;;;;;17.87;41.25;102983.84;4962524;28;1112;-54
2023/12/17 01:00:10;;;;;;;;;;;;;;;16.58;43.51;102993.28;4979389;28;1084;-56
2023/12/17 01:02:36;;;;;;;;;;;;;;;17.46;42.05;102998.84;4963754;28;1101;-55
2023/12/17 01:05:01;;;;;;;;;;;;;;;17.72;40.89;103002.22;4961512;28;1911;-55
2023/12/17 01:07:27;;;;;;;;;;;;;;;16.52;43.08;102999.72;4976493;28;1077;-53
2023/12/17 01:09:52;;;;;;;;;;;;;;;17.98;40.92;103000.22;4959874;29;1179;-53
2023/12/17 01:12:18;;;;;;;;;;;;;;;16.94;42.35;102996.41;4962007;28;1111;-54
2023/12/17 01:14:43;;;;;;;;;;;;;;;16.23;43.65;102987.47;4978845;28;1069;-54
2023/12/17 01:17:09;;;;;;;;;;;;;;;16.01;43.49;102996.19;4976608;28;1064;-55
2023/12/17 01:19:34;;;;;;;;;;;;;;;17.35;42.33;103001.06;4970316;28;1124;-53
2023/12/17 01:22:00;;;;;;;;;;;;;;;16.25;43.48;102988.28;4972385;28;1201;-53
2023/12/17 01:24:25;;;;;;;;;;;;;;;16.92;43.20;102998.25;4967390;28;1975;-55
2023/12/17 01:26:51;;;;;;;;;;;;;;;17.21;41.77;102993.63;4976283;28;1104;-53
2023/12/17 01:29:16;;;;;;;;;;;;;;;16.13;44.17;103000.22;4963859;28;1073;-53
2023/12/17 01:31:42;;;;;;;;;;;;;;;15.94;44.02;102997.28;4958725;29;1108;-54
2023/12/17 01:34:08;;;;;;;;;;;;;;;17.38;41.65;102995.63;4959178;28;1077;-53
2023/12/17 01:36:33;;;;;;;;;;;;;;;16.12;44.00;102990.50;4973044;28;1160;-54
2023/12/17 01:38:59;;;;;;;;;;;;;;;17.71;41.16;102992.50;4958361;28;1057;-52
2023/12/17 01:41:24;;;;;;;;;;;;;;;16.96;42.60;102995.44;4968316;28;1094;-55
2023/12/17 01:43:49;;;;;;;;;;;;;;;16.13;43.97;102985.13;4966073;28;1902;-55
2023/12/17 01:46:15;;;;;;;;;;;;;;;16.17;44.03;102993.88;4977156;28;1053;-56
2023/12/17 01:48:41;;;;;;;;;;;;;;;17.34;41.65;102992.22;4957989;29;1106;-54
2023/12/17 01:51:07;;;;;;;;;;;;;;;16.16;43.64;102992.13;4959776;28;1085;-55
2023/12/17 01:53:32;;;;;;;;;;;;;;;15.92;44.52;102992.03;4973209;28;1064;-54
2023/12/17 01:55:58;;;;;;;;;;;;;;;17.23;41.96;102986.47;4957007;29;1149;-56
2023/12/17 01:58:23;;;;;;;;;;;;;;;16.30;44.29;102988.13;4957781;29;1136;-56
2023/12/17 02:00:49;;;;;;;;;;;;;;;18.28;39.83;102987.47;4956994;28;1117;-55
2023/12/17 02:03:14;;;;;;;;;;;;;;;17.13;42.04;102991.28;4965708;28;1156;-53
2023/12/17 02:05:40;;;;;;;;;;;;;;;16.26;43.69;102988.25;4972853;28;1901;-51
2023/12/17 02:08:05;;;;;;;;;;;;;;;17.66;41.28;102999.81;4965015;28;1127;-53
2023/12/17 02:10:31;;;;;;;;;;;;;;;16.46;43.07;102981.34;4977045;28;1084;-53
2023/12/17 02:12:59;;;;;;;;;;;;;;;16.48;43.68;102975.97;4971106;28;1180;-51
2023/12/17 02:15:25;;;;;;;;;;;;;;;17.21;41.68;102980.34;4971317;28;1165;-53
2023/12/17 02:17:51;;;;;;;;;;;;;;;16.93;42.95;102992.03;4971251;28;1171;-55
2023/12/17 02:20:16;;;;;;;;;;;;;;;18.63;39.03;102986.81;4972061;28;1224;-53
2023/12/17 02:22:42;;;;;;;;;;;;;;;17.09;41.98;102987.00;4977478;28;1156;-55
2023/12/17 02:25:07;;;;;;;;;;;;;;;16.50;43.13;102987.38;4963994;28;1975;-56
2023/12/17 02:27:33;;;;;;;;;;;;;;;17.97;40.62;102986.97;4970387;28;1135;-51
2023/12/17 02:29:58;;;;;;;;;;;;;;;16.63;42.78;102986.00;4965433;28;1116;-54
2023/12/17 02:32:24;;;;;;;;;;;;;;;16.13;43.45;102979.81;4964809;28;1120;-53
2023/12/17 02:34:52;;;;;;;;;;;;;;;16.93;42.79;102979.59;4976479;28;1069;-56
2023/12/17 02:37:18;;;;;;;;;;;;;;;16.59;43.07;102981.75;4970163;28;1199;-52
2023/12/17 02:39:43;;;;;;;;;;;;;;;15.96;43.82;102974.22;4958145;28;1186;-54
2023/12/17 02:42:09;;;;;;;;;;;;;;;17.54;41.38;102974.56;4963931;28;1085;-52
2023/12/17 02:44:34;;;;;;;;;;;;;;;16.26;43.43;102969.66;4975846;28;1975;-51
2023/12/17 02:47:00;;;;;;;;;;;;;;;17.16;42.28;102977.88;4964719;28;1076;-52
2023/12/17 02:49:26;;;;;;;;;;;;;;;16.96;42.01;102974.16;4962763;28;1407;-55
2023/12/17 02:51:51;;;;;;;;;;;;;;;16.06;44.05;102972.13;4957823;28;1088;-52
2023/12/17 02:54:20;;;;;;;;;;;;;;;16.10;44.30;102973.78;4970803;28;1053;-57
2023/12/17 02:56:46;;;;;;;;;;;;;;;17.03;41.95;102982.78;4952609;28;1057;-55
2023/12/17 02:59:12;;;;;;;;;;;;;;;16.16;43.55;102968.25;4976441;28;1080;-51
2023/12/17 03:01:39;;;;;;;;;;;;;;;16.87;42.93;102974.50;4957575;28;1085;-54
2023/12/17 03:04:05;;;;;;;;;;;;;;;16.57;43.08;102964.13;4957716;28;1910;-54
2023/12/17 03:06:30;;;;;;;;;;;;;;;15.92;43.97;102976.09;4957281;28;890;-56
2023/12/17 03:08:56;;;;;;;;;;;;;;;17.72;40.57;102972.06;4970737;28;1057;-55
2023/12/17 03:11:21;;;;;;;;;;;;;;;16.22;43.29;102975.97;4965224;28;1239;-55
2023/12/17 03:13:47;;;;;;;;;;;;;;;16.98;42.64;102982.09;4964204;28;1024;-56
2023/12/17 03:16:12;;;;;;;;;;;;;;;16.88;42.11;102976.25;4977791;28;1092;-56
2023/12/17 03:18:38;;;;;;;;;;;;;;;16.47;43.41;102988.38;4968156;28;1085;-52
2023/12/17 03:21:05;;;;;;;;;;;;;;;18.40;39.30;102983.41;4963959;28;1125;-54
2023/12/17 03:23:31;;;;;;;;;;;;;;;16.63;42.81;102982.50;4976676;28;1902;-50
2023/12/17 03:25:56;;;;;;;;;;;;;;;16.05;43.63;102981.88;4968858;28;1132;-54
2023/12/17 03:28:22;;;;;;;;;;;;;;;17.52;40.99;102987.06;4972331;28;1073;-52
2023/12/17 03:30:47;;;;;;;;;;;;;;;16.25;43.24;102983.84;4971751;28;858;-51
2023/12/17 03:33:13;;;;;;;;;;;;;;;15.92;43.82;102989.38;4961830;28;1053;-52
2023/12/17 03:35:38;;;;;;;;;;;;;;;17.42;41.48;102991.03;4980614;28;1008;-53
2023/12/17 03:38:04;;;;;;;;;;;;;;;16.34;43.41;102987.97;4967562;28;1104;-53
2023/12/17 03:40:30;;;;;;;;;;;;;;;17.17;42.14;102992.00;4980546;28;1185;-54
2023/12/17 03:42:56;;;;;;;;;;;;;;;17.74;40.45;102996.81;4971392;28;1072;-53
2023/12/17 03:45:21;;;;;;;;;;;;;;;16.33;43.04;102988.03;4979875;28;1910;-56
2023/12/17 03:47:47;;;;;;;;;;;;;;;17.05;42.45;102988.03;4967263;28;1168;-50
2023/12/17 03:50:16;;;;;;;;;;;;;;;16.61;43.07;102994.97;4973642;28;1136;-51
2023/12/17 03:52:41;;;;;;;;;;;;;;;16.93;42.74;102989.38;4973686;28;1100;-53
2023/12/17 03:55:07;;;;;;;;;;;;;;;17.91;40.07;102988.13;4970511;28;919;-52
2023/12/17 03:57:32;;;;;;;;;;;;;;;16.58;42.50;102995.09;4960988;28;1064;-52
2023/12/17 03:59:58;;;;;;;;;;;;;;;16.21;43.92;102991.97;4979835;28;1068;-52
2023/12/17 04:02:25;;;;;;;;;;;;;;;16.94;41.93;102994.63;4980291;28;1077;-51
2023/12/17 04:04:50;;;;;;;;;;;;;;;16.17;43.53;102991.22;4955048;28;1906;-55
2023/12/17 04:07:16;;;;;;;;;;;;;;;17.68;40.88;102989.09;4976164;28;1211;-50
2023/12/17 04:09:41;;;;;;;;;;;;;;;16.49;42.85;102977.69;4973604;28;1133;-54
2023/12/17 04:12:07;;;;;;;;;;;;;;;16.93;42.74;102976.94;4973154;28;1133;-53
2023/12/17 04:14:32;;;;;;;;;;;;;;;17.71;40.48;102983.66;4973118;28;1302;-54
2023/12/17 04:16:58;;;;;;;;;;;;;;;16.26;43.23;102982.94;4961880;28;1335;-51
2023/12/17 04:19:23;;;;;;;;;;;;;;;16.78;42.93;102989.03;4971950;28;879;-56
2023/12/17 04:21:49;;;;;;;;;;;;;;;16.82;42.09;102989.75;4966060;28;1040;-51
2023/12/17 04:24:14;;;;;;;;;;;;;;;17.10;42.26;102986.09;4971171;28;1983;-52
2023/12/17 04:26:40;;;;;;;;;;;;;;;18.69;38.54;102984.72;4969402;28;2903;-49
2023/12/17 04:29:05;;;;;;;;;;;;;;;16.86;42.13;102999.38;4974622;28;2233;-53
2023/12/17 04:31:31;;;;;;;;;;;;;;;16.36;43.21;102994.09;4959459;28;2296;-51
2023/12/17 04:33:56;;;;;;;;;;;;;;;17.11;41.70;102995.78;4968776;28;2102;-54
2023/12/17 04:36:22;;;;;;;;;;;;;;;16.24;42.88;102982.13;4968409;28;1925;-53
2023/12/17 04:38:48;;;;;;;;;;;;;;;15.97;43.11;102991.88;4959837;28;1963;-56
2023/12/17 04:41:14;;;;;;;;;;;;;;;17.34;41.30;102999.31;4970772;28;1077;-57
2023/12/17 04:43:39;;;;;;;;;;;;;;;16.19;43.41;102999.13;4966778;28;1910;-61
2023/12/17 04:46:05;;;;;;;;;;;;;;;17.81;40.71;103008.94;4976235;28;1085;-56
2023/12/17 04:48:30;;;;;;;;;;;;;;;17.02;41.61;103003.16;4978022;28;891;-58
2023/12/17 04:50:56;;;;;;;;;;;;;;;16.15;43.13;103007.19;4974924;28;1033;-57
2023/12/17 04:53:22;;;;;;;;;;;;;;;16.74;42.85;103011.31;4969665;28;1025;-56
2023/12/17 04:55:47;;;;;;;;;;;;;;;16.65;42.57;103009.88;4975543;28;1026;-54
2023/12/17 04:58:13;;;;;;;;;;;;;;;17.51;41.28;103009.28;4967977;28;980;-52
2023/12/17 05:00:38;;;;;;;;;;;;;;;18.59;38.44;103010.06;4961819;28;1290;-51
2023/12/17 05:03:05;;;;;;;;;;;;;;;16.79;42.20;103013.81;4968935;28;1132;-52
2023/12/17 05:05:30;;;;;;;;;;;;;;;16.29;42.79;103008.50;4975342;28;1977;-53
2023/12/17 05:07:56;;;;;;;;;;;;;;;17.51;40.94;103017.28;4976777;28;924;-51
2023/12/17 05:10:21;;;;;;;;;;;;;;;16.34;43.04;103017.19;4976131;28;2395;-52
2023/12/17 05:12:47;;;;;;;;;;;;;;;17.09;42.11;103025.09;4968432;28;1176;-50
2023/12/17 05:15:12;;;;;;;;;;;;;;;16.96;41.70;103030.00;4962192;28;1133;-47
2023/12/17 05:17:38;;;;;;;;;;;;;;;16.23;43.01;103028.16;4978439;28;1072;-51
2023/12/17 05:20:03;;;;;;;;;;;;;;;18.12;39.85;103036.06;4972108;28;1128;-52
2023/12/17 05:22:29;;;;;;;;;;;;;;;16.53;42.60;103030.66;4976286;28;1161;-53
2023/12/17 05:24:54;;;;;;;;;;;;;;;17.71;40.75;103028.91;4962307;28;1973;-51
2023/12/17 05:27:20;;;;;;;;;;;;;;;18.29;38.89;103031.81;4959100;28;994;-52
2023/12/17 05:29:46;;;;;;;;;;;;;;;17.39;40.72;103037.25;4960844;28;1018;-52
2023/12/17 05:32:11;;;;;;;;;;;;;;;17.00;41.56;103031.59;4965824;28;865;-49
2023/12/17 05:34:37;;;;;;;;;;;;;;;16.64;42.22;103032.94;4973252;28;1113;-51
2023/12/17 05:37:02;;;;;;;;;;;;;;;16.36;42.63;103031.28;4972868;28;1049;-51
2023/12/17 05:39:28;;;;;;;;;;;;;;;16.18;43.28;103026.59;4958666;29;2241;-54
2023/12/17 05:41:53;;;;;;;;;;;;;;;15.96;43.57;103029.97;4976294;28;1089;-55
2023/12/17 05:44:19;;;;;;;;;;;;;;;15.73;44.45;103037.75;4976067;28;1934;-52
2023/12/17 05:46:44;;;;;;;;;;;;;;;15.60;44.44;103045.25;4977342;28;1077;-54
2023/12/17 05:49:10;;;;;;;;;;;;;;;15.50;44.63;103041.16;4977402;28;1146;-53
2023/12/17 05:51:35;;;;;;;;;;;;;;;15.30;44.81;103045.28;4959984;28;1180;-52
2023/12/17 05:54:01;;;;;;;;;;;;;;;15.66;44.55;103038.88;4969498;28;1001;-53
2023/12/17 05:56:26;;;;;;;;;;;;;;;17.11;40.98;103049.84;4968831;28;1186;-54
2023/12/17 05:58:52;;;;;;;;;;;;;;;16.17;42.88;103036.34;4977656;28;1044;-52
2023/12/17 06:01:17;;;;;;;;;;;;;;;15.70;43.53;103039.66;4965006;28;1069;-52
2023/12/17 06:03:43;;;;;;;;;;;;;;;15.47;44.15;103042.13;4966058;28;1902;-52
2023/12/17 06:06:08;;;;;;;;;;;;;;;16.40;42.70;103051.50;4962535;28;1013;-50
2023/12/17 06:08:34;;;;;;;;;;;;;;;16.97;41.05;103055.66;4971369;28;2345;-54
2023/12/17 06:10:59;;;;;;;;;;;;;;;16.05;43.04;103052.72;4970954;28;1076;-52
2023/12/17 06:13:25;;;;;;;;;;;;;;;15.54;44.21;103051.63;4968715;28;1069;-52
2023/12/17 06:15:50;;;;;;;;;;;;;;;15.36;44.53;103049.56;4964593;28;1140;-52
2023/12/17 06:18:16;;;;;;;;;;;;;;;16.62;41.91;103053.38;4976691;28;997;-52
2023/12/17 06:20:42;;;;;;;;;;;;;;;16.58;41.88;103046.44;4967723;28;1029;-53
2023/12/17 06:23:10;;;;;;;;;;;;;;;15.81;43.43;103047.25;4977281;28;1072;-50
2023/12/17 06:25:36;;;;;;;;;;;;;;;15.49;44.20;103050.91;4964282;28;1988;-49
2023/12/17 06:28:02;;;;;;;;;;;;;;;15.73;44.04;103040.41;4977327;28;1037;-54
2023/12/17 06:30:27;;;;;;;;;;;;;;;17.19;40.70;103048.69;4976532;28;1060;-51
2023/12/17 06:32:53;;;;;;;;;;;;;;;16.63;41.61;103043.63;4974237;28;946;-50
2023/12/17 06:35:18;;;;;;;;;;;;;;;15.91;42.93;103043.41;4977089;28;1101;-51
2023/12/17 06:37:44;;;;;;;;;;;;;;;15.54;43.79;103035.72;4976766;28;1157;-47
2023/12/17 06:40:09;;;;;;;;;;;;;;;15.52;44.08;103028.72;4963441;28;2332;-51
2023/12/17 06:42:35;;;;;;;;;;;;;;;17.04;40.77;103031.47;4976545;28;997;-51
2023/12/17 06:45:01;;;;;;;;;;;;;;;16.51;41.77;103021.91;4965189;28;1906;-53
2023/12/17 06:47:26;;;;;;;;;;;;;;;15.82;43.24;103030.41;4977121;28;1021;-54
2023/12/17 06:49:53;;;;;;;;;;;;;;;15.53;44.00;103030.47;4976013;28;1132;-53
2023/12/17 06:52:18;;;;;;;;;;;;;;;16.72;41.36;103026.44;4976527;28;1048;-52
2023/12/17 06:54:44;;;;;;;;;;;;;;;16.60;41.52;103033.13;4973387;28;1016;-55
2023/12/17 06:57:09;;;;;;;;;;;;;;;15.85;43.23;103033.00;4971218;28;905;-51
2023/12/17 06:59:35;;;;;;;;;;;;;;;15.52;43.93;103031.34;4963895;28;1001;-54
2023/12/17 07:02:00;;;;;;;;;;;;;;;16.36;42.35;103033.06;4977075;28;1151;-53
2023/12/17 07:04:26;;;;;;;;;;;;;;;16.94;40.80;103041.59;4966616;28;1906;-55
2023/12/17 07:06:51;;;;;;;;;;;;;;;16.03;42.45;103039.50;4973540;28;1168;-52
2023/12/17 07:09:17;;;;;;;;;;;;;;;15.64;43.33;103040.72;4975782;28;2380;-56
2023/12/17 07:11:42;;;;;;;;;;;;;;;15.32;44.45;103040.81;4973756;28;1204;-54
2023/12/17 07:14:08;;;;;;;;;;;;;;;16.84;41.17;103041.09;4963649;28;1125;-51
2023/12/17 07:16:33;;;;;;;;;;;;;;;16.75;41.03;103034.31;4963654;28;1094;-51
2023/12/17 07:18:59;;;;;;;;;;;;;;;15.94;42.57;103031.78;4979249;28;1025;-53
2023/12/17 07:21:25;;;;;;;;;;;;;;;15.55;43.40;103029.47;4967729;28;939;-52
2023/12/17 07:23:51;;;;;;;;;;;;;;;16.45;42.05;103027.41;4963829;28;1979;-52
2023/12/17 07:26:16;;;;;;;;;;;;;;;17.02;40.46;103023.56;4963599;28;1059;-53
2023/12/17 07:28:42;;;;;;;;;;;;;;;16.09;42.51;103023.34;4979317;28;1137;-54
2023/12/17 07:31:07;;;;;;;;;;;;;;;15.64;43.37;103022.16;4982850;28;1028;-54
2023/12/17 07:33:33;;;;;;;;;;;;;;;15.93;43.00;103022.09;4969945;28;1089;-53
2023/12/17 07:35:58;;;;;;;;;;;;;;;17.07;40.29;103016.28;4973856;28;1195;-52
2023/12/17 07:38:24;;;;;;;;;;;;;;;16.08;42.27;103013.63;4975971;28;1826;-52
2023/12/17 07:40:49;;;;;;;;;;;;;;;15.66;43.35;103015.00;4972993;28;1430;-50
2023/12/17 07:43:15;;;;;;;;;;;;;;;15.88;43.25;103014.31;4982421;28;1148;-54
2023/12/17 07:45:40;;;;;;;;;;;;;;;17.24;40.03;103013.00;4966650;28;1985;-55
2023/12/17 07:48:07;;;;;;;;;;;;;;;16.43;41.50;103015.13;4978018;28;1064;-53
2023/12/17 07:50:32;;;;;;;;;;;;;;;15.83;42.98;103018.91;4974111;28;1153;-52
2023/12/17 07:52:58;;;;;;;;;;;;;;;15.48;43.67;103027.94;4974739;28;1147;-52
2023/12/17 07:55:23;;;;;;;;;;;;;;;15.29;44.33;103028.53;4972717;28;1103;-56
2023/12/17 07:57:49;;;;;;;;;;;;;;;16.75;41.27;103032.53;4981752;28;953;-53
2023/12/17 08:00:15;;;;;;;;;;;;;;;16.67;40.95;103034.59;4982462;28;1072;-51
2023/12/17 08:02:40;;;;;;;;;;;;;;;15.87;42.97;103039.97;4982464;28;1005;-53
2023/12/17 08:05:06;;;;;;;;;;;;;;;15.55;43.53;103028.59;4974002;28;1956;-52
2023/12/17 08:07:32;;;;;;;;;;;;;;;16.62;41.25;103028.59;4965032;28;1080;-51
2023/12/17 08:09:57;;;;;;;;;;;;;;;16.98;40.46;103025.47;4974116;28;1896;-50
2023/12/17 08:12:23;;;;;;;;;;;;;;;16.06;42.24;103023.47;4969649;28;1176;-52
2023/12/17 08:14:48;;;;;;;;;;;;;;;15.66;43.15;103015.84;4981205;28;1108;-53
2023/12/17 08:17:14;;;;;;;;;;;;;;;16.21;42.21;103018.53;4966539;28;1262;-53
2023/12/17 08:19:39;;;;;;;;;;;;;;;17.14;39.96;103016.94;4970635;28;1176;-53
2023/12/17 08:22:05;;;;;;;;;;;;;;;16.13;42.14;103024.97;4961428;28;979;-51
2023/12/17 08:24:30;;;;;;;;;;;;;;;15.67;43.41;103020.25;4967636;28;1977;-51
2023/12/17 08:26:57;;;;;;;;;;;;;;;15.59;43.75;103018.78;4979435;28;1157;-51
2023/12/17 08:29:24;;;;;;;;;;;;;;;17.09;40.64;103011.81;4979324;28;1001;-54
2023/12/17 08:31:49;;;;;;;;;;;;;;;16.30;41.81;103006.72;4964200;28;1137;-54
2023/12/17 08:34:15;;;;;;;;;;;;;;;15.78;43.24;102992.50;4968145;28;935;-55
2023/12/17 08:36:41;;;;;;;;;;;;;;;15.49;43.75;102987.25;4975063;28;1006;-54
2023/12/17 08:39:07;;;;;;;;;;;;;;;16.89;40.72;102992.16;4970256;28;1832;-53
2023/12/17 08:41:33;;;;;;;;;;;;;;;16.50;41.36;102985.59;4960874;28;1068;-56
2023/12/17 08:43:59;;;;;;;;;;;;;;;15.94;42.42;103013.22;4978854;28;1965;-52
2023/12/17 08:46:25;;;;;;;;;;;;;;;15.51;43.46;102984.53;4973457;28;939;-50
2023/12/17 08:48:50;;;;;;;;;;;;;;;16.81;41.24;102986.25;4959455;29;1132;-50
2023/12/17 08:51:16;;;;;;;;;;;;;;;16.58;41.10;102982.66;4960851;28;1121;-52
2023/12/17 08:53:42;;;;;;;;;;;;;;;15.96;42.61;102982.19;4970616;28;989;-55
2023/12/17 08:56:07;;;;;;;;;;;;;;;15.65;43.52;102974.34;4971872;28;1084;-53
2023/12/17 08:58:33;;;;;;;;;;;;;;;16.28;42.36;102972.25;4969914;28;959;-54
2023/12/17 09:00:58;;;;;;;;;;;;;;;17.60;39.36;102974.31;4958743;28;1046;-52
2023/12/17 09:03:24;;;;;;;;;;;;;;;16.34;41.72;102966.72;4966220;28;1066;-51
2023/12/17 09:05:50;;;;;;;;;;;;;;;15.91;42.81;102963.75;4964606;28;1935;-53
2023/12/17 09:08:15;;;;;;;;;;;;;;;15.58;43.43;102969.28;4966175;28;1957;-50
2023/12/17 09:10:41;;;;;;;;;;;;;;;16.63;41.67;102967.41;4976312;28;963;-49
2023/12/17 09:13:09;;;;;;;;;;;;;;;16.91;40.47;102970.81;4967131;28;1061;-53
2023/12/17 09:15:35;;;;;;;;;;;;;;;16.11;42.46;102968.41;4963503;28;1117;-50
2023/12/17 09:18:01;;;;;;;;;;;;;;;15.71;43.02;102973.28;4967696;28;1115;-53
2023/12/17 09:20:26;;;;;;;;;;;;;;;16.50;41.73;102966.13;4977607;28;1080;-50
2023/12/17 09:22:52;;;;;;;;;;;;;;;17.02;40.35;102965.94;4958993;28;1048;-52
2023/12/17 09:25:18;;;;;;;;;;;;;;;16.11;42.32;102957.78;4945860;28;1910;-52
2023/12/17 09:27:43;;;;;;;;;;;;;;;15.71;43.26;102962.66;4967417;28;1144;-50
2023/12/17 09:30:09;;;;;;;;;;;;;;;16.02;42.93;102964.28;4976017;28;1005;-53
2023/12/17 09:32:35;;;;;;;;;;;;;;;17.32;39.92;102959.47;4967295;28;1093;-53
2023/12/17 09:35:01;;;;;;;;;;;;;;;16.37;41.89;102955.09;4965518;28;1105;-52
2023/12/17 09:37:26;;;;;;;;;;;;;;;15.85;42.84;102959.53;4969904;28;1103;-53
2023/12/17 09:39:53;;;;;;;;;;;;;;;15.50;43.80;102943.88;4959976;28;1824;-50
2023/12/17 09:42:19;;;;;;;;;;;;;;;16.75;41.16;102949.25;4970007;28;1149;-51
2023/12/17 09:44:45;;;;;;;;;;;;;;;16.98;40.61;102947.53;4959332;28;1902;-55
2023/12/17 09:47:10;;;;;;;;;;;;;;;16.08;42.17;102941.94;4957221;29;1054;-53
2023/12/17 09:49:36;;;;;;;;;;;;;;;15.75;43.01;102943.03;4973005;28;1141;-55
2023/12/17 09:52:05;;;;;;;;;;;;;;;15.81;43.27;102941.09;4977524;28;986;-53
2023/12/17 09:54:30;;;;;;;;;;;;;;;17.20;40.26;102941.38;4963966;28;1014;-52
2023/12/17 09:56:56;;;;;;;;;;;;;;;16.37;41.94;102933.84;4970276;28;1187;-52
2023/12/17 09:59:22;;;;;;;;;;;;;;;15.89;42.72;102928.44;4964317;28;1068;-55
2023/12/17 10:01:48;;;;;;;;;;;;;;;15.53;43.43;102927.84;4977417;28;989;-53
2023/12/17 10:04:13;;;;;;;;;;;;;;;15.60;43.67;102925.00;4964353;28;1973;-53
2023/12/17 10:06:39;;;;;;;;;;;;;;;17.06;40.64;102916.16;4977184;28;1135;-54
2023/12/17 10:09:06;;;;;;;;;;;;;;;16.51;41.58;102922.72;4962719;28;2279;-54
2023/12/17 10:11:32;;;;;;;;;;;;;;;15.83;42.73;102918.03;4976974;28;1079;-51
2023/12/17 10:13:59;;;;;;;;;;;;;;;15.58;43.79;102929.50;4976658;28;1080;-51
2023/12/17 10:16:25;;;;;;;;;;;;;;;16.08;42.91;102925.16;4968306;28;1125;-54
2023/12/17 10:18:51;;;;;;;;;;;;;;;17.34;40.03;102917.72;4960587;28;1076;-50
2023/12/17 10:21:17;;;;;;;;;;;;;;;16.46;41.71;102925.56;4970872;28;1049;-53
2023/12/17 10:23:46;;;;;;;;;;;;;;;15.83;43.11;102918.88;4974682;28;1959;-52
2023/12/17 10:26:12;;;;;;;;;;;;;;;15.64;43.70;102911.59;4958011;28;1041;-52
2023/12/17 10:28:37;;;;;;;;;;;;;;;17.11;40.64;102910.69;4974021;28;1108;-51
2023/12/17 10:31:03;;;;;;;;;;;;;;;16.55;41.43;102911.03;4977600;28;1010;-53
2023/12/17 10:33:29;;;;;;;;;;;;;;;15.94;43.00;102901.72;4971677;28;1140;-53
2023/12/17 10:35:54;;;;;;;;;;;;;;;15.63;43.37;102899.22;4965622;28;1114;-51
2023/12/17 10:38:20;;;;;;;;;;;;;;;16.46;42.09;102906.94;4972792;28;2197;-49
2023/12/17 10:40:45;;;;;;;;;;;;;;;17.11;40.16;102903.59;4966558;28;1160;-53
2023/12/17 10:43:12;;;;;;;;;;;;;;;16.15;42.45;102905.41;4962582;28;1121;-52
2023/12/17 10:45:38;;;;;;;;;;;;;;;15.78;43.26;102891.66;4971395;28;1972;-52
2023/12/17 10:48:03;;;;;;;;;;;;;;;15.53;43.63;102895.16;4970698;28;1184;-51
2023/12/17 10:50:29;;;;;;;;;;;;;;;16.89;41.05;102888.47;4965118;28;1116;-49
2023/12/17 10:52:54;;;;;;;;;;;;;;;16.75;40.89;102886.34;4964094;28;1113;-52
2023/12/17 10:55:20;;;;;;;;;;;;;;;15.97;42.90;102881.25;4977051;28;1036;-52
2023/12/17 10:57:47;;;;;;;;;;;;;;;15.71;43.34;102876.88;4963028;28;1203;-53
2023/12/17 11:00:13;;;;;;;;;;;;;;;15.70;43.45;102880.44;4964630;28;1066;-52
2023/12/17 11:02:39;;;;;;;;;;;;;;;17.16;40.45;102871.47;4961251;28;1175;-51
2023/12/17 11:05:05;;;;;;;;;;;;;;;16.44;41.88;102868.06;4965243;28;1906;-52
2023/12/17 11:07:30;;;;;;;;;;;;;;;15.88;42.90;102863.00;4976683;28;1053;-54
2023/12/17 11:09:57;;;;;;;;;;;;;;;15.62;43.84;102857.69;4960443;28;2622;-50
2023/12/17 11:12:23;;;;;;;;;;;;;;;16.28;42.52;102858.06;4972791;28;1156;-53
2023/12/17 11:14:48;;;;;;;;;;;;;;;17.35;39.80;102850.28;4974508;28;1065;-54
2023/12/17 11:17:15;;;;;;;;;;;;;;;16.31;41.97;102852.63;4961061;28;1309;-54
2023/12/17 11:19:59;;;;;;;;;;;;;;;15.83;42.98;102860.50;4957476;28;1096;-54
2023/12/17 11:22:25;;;;;;;;;;;;;;;15.65;43.48;102854.06;4964012;28;936;-54
2023/12/17 11:24:54;;;;;;;;;;;;;;;17.13;40.48;102850.34;4965135;28;1910;-49
2023/12/17 11:27:21;;;;;;;;;;;;;;;16.36;42.03;102858.63;4975742;28;1141;-47
2023/12/17 11:29:47;;;;;;;;;;;;;;;15.82;43.17;102858.78;4976665;28;1067;-51
2023/12/17 11:32:13;;;;;;;;;;;;;;;15.50;43.74;102859.00;4957224;28;1121;-46
2023/12/17 11:34:39;;;;;;;;;;;;;;;16.62;41.85;102855.84;4966115;28;1089;-49
2023/12/17 11:37:04;;;;;;;;;;;;;;;17.04;40.73;102863.97;4970043;28;1044;-50
2023/12/17 11:39:30;;;;;;;;;;;;;;;16.18;42.27;102859.31;4957031;29;1908;-50
2023/12/17 11:41:55;;;;;;;;;;;;;;;15.70;43.19;102856.56;4968547;28;1081;-54
2023/12/17 11:44:21;;;;;;;;;;;;;;;15.93;43.25;102860.19;4956069;29;1910;-50
2023/12/17 11:46:47;;;;;;;;;;;;;;;17.25;40.35;102851.59;4965387;28;1161;-51
2023/12/17 11:49:20;;;;;;;;;;;;;;;16.29;42.42;102854.47;4958670;28;1168;-50
2023/12/17 11:51:46;;;;;;;;;;;;;;;15.78;43.08;102842.09;4953991;28;1126;-49
2023/12/17 11:54:16;;;;;;;;;;;;;;;15.54;43.76;102835.88;4979671;28;1076;-50
2023/12/17 11:56:42;;;;;;;;;;;;;;;16.21;42.77;102835.28;4955985;28;1138;-52
2023/12/17 11:59:07;;;;;;;;;;;;;;;17.07;40.60;102824.81;4977549;28;1156;-52
2023/12/17 12:01:33;;;;;;;;;;;;;;;16.15;42.30;102829.28;4979460;28;1076;-49
2023/12/17 12:03:59;;;;;;;;;;;;;;;15.70;43.61;102822.94;4979750;28;1910;-53
2023/12/17 12:06:25;;;;;;;;;;;;;;;15.93;43.13;102823.91;4978383;28;1096;-50
2023/12/17 12:08:50;;;;;;;;;;;;;;;17.28;40.17;102821.34;4973413;28;2522;-50
2023/12/17 12:11:17;;;;;;;;;;;;;;;16.26;42.26;102825.38;4972538;28;924;-55
2023/12/17 12:13:43;;;;;;;;;;;;;;;15.74;43.23;102816.59;4979365;28;1076;-53
2023/12/17 12:16:09;;;;;;;;;;;;;;;15.59;43.66;102812.72;4979657;28;1025;-50
2023/12/17 12:18:35;;;;;;;;;;;;;;;16.95;40.92;102812.88;4979235;28;1001;-52
2023/12/17 12:21:00;;;;;;;;;;;;;;;16.83;40.77;102811.59;4965202;28;1192;-53
2023/12/17 12:23:26;;;;;;;;;;;;;;;16.04;42.78;102826.16;4967184;28;1050;-51
2023/12/17 12:25:58;;;;;;;;;;;;;;;15.71;43.26;102824.69;4979077;28;1902;-53
2023/12/17 12:28:23;;;;;;;;;;;;;;;15.49;44.00;102824.56;4953215;28;1021;-52
2023/12/17 12:30:49;;;;;;;;;;;;;;;17.05;40.87;102820.50;4971854;28;1117;-51
2023/12/17 12:33:15;;;;;;;;;;;;;;;16.60;41.54;102825.84;4961506;28;1215;-52
2023/12/17 12:35:44;;;;;;;;;;;;;;;15.91;42.95;102823.09;4973194;28;898;-51
2023/12/17 12:38:16;;;;;;;;;;;;;;;15.60;43.88;102826.84;4963970;28;2453;-54
2023/12/17 12:40:41;;;;;;;;;;;;;;;16.54;41.75;102818.97;4968135;28;1142;-52